createdAt,value
2019-03-11T00:00:43.101Z,100229.74
2019-03-11T00:03:09.910Z,100232.36
2019-03-11T00:05:36.715Z,100234.52
2019-03-11T00:08:03.620Z,100237.98
2019-03-11T00:10:30.381Z,100245.34
2019-03-11T00:12:57.097Z,100246.64
2019-03-11T00:15:23.815Z,100256.15
2019-03-11T00:17:50.604Z,100258.75
2019-03-11T00:20:17.598Z,100259.20
2019-03-11T00:22:44.314Z,100254.42
2019-03-11T00:25:11.177Z,100259.19
2019-03-11T00:27:37.793Z,100261.78
2019-03-11T00:30:04.913Z,100270.87
2019-03-11T00:32:31.695Z,100262.23
2019-03-11T00:34:58.325Z,100275.22
2019-03-11T00:37:25.449Z,100270.88
2019-03-11T00:39:52.264Z,100283.00
2019-03-11T00:42:32.362Z,100283.00
2019-03-11T00:44:59.059Z,100290.36
2019-03-11T00:47:25.771Z,100298.16
2019-03-11T00:49:52.393Z,100300.31
2019-03-11T00:52:19.160Z,100310.69
2019-03-11T00:54:45.993Z,100312.01
2019-03-11T00:57:12.614Z,100315.05
2019-03-11T00:59:39.387Z,100314.17
2019-03-11T01:02:06.406Z,100316.33
2019-03-11T01:04:33.126Z,100332.78
2019-03-11T01:06:59.832Z,100337.55
2019-03-11T01:09:26.457Z,100326.73
2019-03-11T01:11:53.071Z,100330.19
2019-03-11T01:14:20.314Z,100334.97
2019-03-11T01:16:47.040Z,100327.59
2019-03-11T01:19:13.657Z,100336.69
2019-03-11T01:21:40.443Z,100332.36
2019-03-11T01:24:07.067Z,100330.64
2019-03-11T01:26:33.693Z,100328.91
2019-03-11T01:29:00.445Z,100328.45
2019-03-11T01:31:27.190Z,100329.31
2019-03-11T01:33:54.378Z,100324.15
2019-03-11T01:36:40.701Z,100332.81
2019-03-11T01:39:07.311Z,100329.33
2019-03-11T01:41:33.928Z,100326.30
2019-03-11T01:44:00.794Z,100331.06
2019-03-11T01:46:27.516Z,100323.72
2019-03-11T01:48:54.233Z,100331.08
2019-03-11T01:51:21.003Z,100323.27
2019-03-11T01:53:47.620Z,100329.33
2019-03-11T01:56:14.614Z,100329.33
2019-03-11T01:58:41.304Z,100329.34
2019-03-11T02:01:08.047Z,100319.80
2019-03-11T02:03:34.665Z,100317.22
2019-03-11T02:06:01.720Z,100327.61
2019-03-11T02:08:28.351Z,100324.59
2019-03-11T02:10:55.336Z,100323.70
2019-03-11T02:13:22.187Z,100324.58
2019-03-11T02:15:49.027Z,100328.89
2019-03-11T02:18:15.874Z,100328.44
2019-03-11T02:20:42.646Z,100334.45
2019-03-11T02:23:09.475Z,100328.34
2019-03-11T02:25:36.197Z,100323.05
2019-03-11T02:28:03.217Z,100330.82
2019-03-11T02:30:29.949Z,100334.26
2019-03-11T02:32:56.661Z,100323.88
2019-03-11T02:36:05.518Z,100325.60
2019-03-11T02:38:32.237Z,100335.59
2019-03-11T02:40:58.866Z,100335.57
2019-03-11T02:43:25.527Z,100329.97
2019-03-11T02:46:05.509Z,100333.39
2019-03-11T02:48:32.197Z,100323.92
2019-03-11T02:50:59.177Z,100326.97
2019-03-11T02:53:25.818Z,100333.02
2019-03-11T02:55:52.578Z,100318.73
2019-03-11T02:58:19.217Z,100324.39
2019-03-11T03:00:45.951Z,100319.20
2019-03-11T03:03:32.388Z,100318.80
2019-03-11T03:06:03.011Z,100317.50
2019-03-11T03:08:29.928Z,100312.71
2019-03-11T03:10:56.782Z,100313.16
2019-03-11T03:13:23.412Z,100317.46
2019-03-11T03:15:50.133Z,100315.75
2019-03-11T03:18:16.917Z,100315.78
2019-03-11T03:20:43.714Z,100316.64
2019-03-11T03:23:10.653Z,100311.91
2019-03-11T03:25:37.309Z,100311.01
2019-03-11T03:28:04.074Z,100309.31
2019-03-11T03:30:31.312Z,100302.83
2019-03-11T03:32:58.288Z,100313.20
2019-03-11T03:35:25.036Z,100309.77
2019-03-11T03:37:51.912Z,100307.16
2019-03-11T03:40:18.728Z,100306.73
2019-03-11T03:42:45.519Z,100303.73
2019-03-11T03:45:51.627Z,100301.13
2019-03-11T03:48:18.649Z,100303.28
2019-03-11T03:51:05.273Z,100302.00
2019-03-11T03:53:32.305Z,100298.09
2019-03-11T03:55:59.152Z,100296.36
2019-03-11T03:58:25.923Z,100297.66
2019-03-11T04:00:52.627Z,100305.89
2019-03-11T04:03:19.886Z,100295.93
2019-03-11T04:05:46.648Z,100291.62
2019-03-11T04:08:13.389Z,100293.78
2019-03-11T04:10:40.102Z,100289.00
2019-03-11T04:13:07.365Z,100289.88
2019-03-11T04:15:34.170Z,100291.62
2019-03-11T04:18:00.863Z,100286.00
2019-03-11T04:20:27.637Z,100294.20
2019-03-11T04:22:54.753Z,100291.64
2019-03-11T04:25:21.511Z,100281.23
2019-03-11T04:27:48.377Z,100289.48
2019-03-11T04:30:17.305Z,100288.61
2019-03-11T04:32:44.051Z,100296.84
2019-03-11T04:35:11.273Z,100295.97
2019-03-11T04:37:38.700Z,100284.27
2019-03-11T04:40:05.569Z,100289.05
2019-03-11T04:42:32.629Z,100291.20
2019-03-11T04:44:59.260Z,100288.61
2019-03-11T04:47:26.369Z,100295.97
2019-03-11T04:49:53.619Z,100295.53
2019-03-11T04:52:20.533Z,100291.19
2019-03-11T04:54:47.518Z,100292.52
2019-03-11T04:57:14.411Z,100299.00
2019-03-11T04:59:41.021Z,100298.16
2019-03-11T05:02:08.379Z,100297.30
2019-03-11T05:04:35.242Z,100306.39
2019-03-11T05:07:01.981Z,100302.92
2019-03-11T05:09:29.159Z,100302.48
2019-03-11T05:11:55.829Z,100301.64
2019-03-11T05:14:22.548Z,100303.36
2019-03-11T05:16:49.256Z,100300.75
2019-03-11T05:19:16.101Z,100309.84
2019-03-11T05:21:42.843Z,100304.64
2019-03-11T05:24:09.649Z,100305.96
2019-03-11T05:26:36.565Z,100307.69
2019-03-11T05:29:03.503Z,100304.23
2019-03-11T05:31:30.332Z,100308.55
2019-03-11T05:34:38.754Z,100296.42
2019-03-11T05:37:05.382Z,100302.48
2019-03-11T05:39:32.428Z,100298.16
2019-03-11T05:41:59.639Z,100295.57
2019-03-11T05:44:26.358Z,100294.70
2019-03-11T05:46:52.992Z,100290.38
2019-03-11T05:49:20.468Z,100292.98
2019-03-11T05:52:00.158Z,100304.23
2019-03-11T05:54:26.831Z,100300.34
2019-03-11T05:56:53.848Z,100310.30
2019-03-11T05:59:20.564Z,100304.22
2019-03-11T06:01:47.498Z,100306.38
2019-03-11T06:04:14.747Z,100309.86
2019-03-11T06:06:41.457Z,100309.87
2019-03-11T06:09:08.497Z,100313.77
2019-03-11T06:11:35.123Z,100306.38
2019-03-11T06:14:02.008Z,100316.34
2019-03-11T06:16:28.782Z,100314.19
2019-03-11T06:18:55.569Z,100318.07
2019-03-11T06:22:01.500Z,100313.75
2019-03-11T06:24:30.455Z,100324.15
2019-03-11T06:26:56.762Z,100315.50
2019-03-11T06:29:30.366Z,100322.85
2019-03-11T06:31:51.983Z,100313.31
2019-03-11T06:34:18.698Z,100314.63
2019-03-11T06:36:45.373Z,100314.61
2019-03-11T06:39:12.094Z,100310.70
2019-03-11T06:41:39.106Z,100318.53
2019-03-11T06:44:06.107Z,100313.31
2019-03-11T06:46:33.111Z,100318.08
2019-03-11T06:48:59.822Z,100313.72
2019-03-11T06:51:26.934Z,100306.41
2019-03-11T06:53:53.743Z,100313.33
2019-03-11T06:56:20.427Z,100310.28
2019-03-11T06:58:47.185Z,100309.41
2019-03-11T07:01:13.820Z,100309.86
2019-03-11T07:03:40.910Z,100313.77
2019-03-11T07:06:07.973Z,100304.22
2019-03-11T07:08:34.745Z,100303.77
2019-03-11T07:11:01.350Z,100312.02
2019-03-11T07:13:28.836Z,100306.38
2019-03-11T07:15:55.826Z,100307.27
2019-03-11T07:18:22.433Z,100309.84
2019-03-11T07:20:49.306Z,100312.88
2019-03-11T07:23:16.449Z,100314.16
2019-03-11T07:25:43.258Z,100311.95
2019-03-11T07:28:10.111Z,100309.76
2019-03-11T07:30:37.114Z,100311.50
2019-03-11T07:33:03.981Z,100308.86
2019-03-11T07:35:30.886Z,100311.00
2019-03-11T07:37:57.498Z,100306.63
2019-03-11T07:40:29.595Z,100320.91
2019-03-11T07:42:53.055Z,100316.93
2019-03-11T07:45:20.284Z,100320.75
2019-03-11T07:47:47.001Z,100316.83
2019-03-11T07:50:55.299Z,100317.27
2019-03-11T07:53:22.010Z,100319.83
2019-03-11T07:56:01.717Z,100329.38
2019-03-11T07:58:28.422Z,100332.42
2019-03-11T08:00:55.149Z,100326.44
2019-03-11T08:03:21.918Z,100329.04
2019-03-11T08:05:48.531Z,100332.98
2019-03-11T08:08:15.565Z,100338.63
2019-03-11T08:10:42.499Z,100329.95
2019-03-11T08:13:09.292Z,100325.61
2019-03-11T08:15:36.024Z,100330.34
2019-03-11T08:18:02.878Z,100337.83
2019-03-11T08:20:29.610Z,100335.23
2019-03-11T08:22:56.312Z,100340.84
2019-03-11T08:25:23.059Z,100330.42
2019-03-11T08:27:50.062Z,100336.42
2019-03-11T08:33:10.861Z,100336.45
2019-03-11T08:35:37.480Z,100345.14
2019-03-11T08:38:05.202Z,100342.09
2019-03-11T08:40:33.297Z,100346.00
2019-03-11T08:43:00.318Z,100355.55
2019-03-11T08:45:27.357Z,100354.72
2019-03-11T08:47:54.186Z,100358.16
2019-03-11T08:50:21.290Z,100354.22
2019-03-11T08:52:48.016Z,100355.55
2019-03-11T08:55:14.937Z,100355.08
2019-03-11T08:57:42.208Z,100360.33
2019-03-11T09:00:09.549Z,100365.93
2019-03-11T09:02:36.584Z,100361.08
2019-03-11T09:05:45.129Z,100368.88
2019-03-11T09:08:12.626Z,100358.86
2019-03-11T09:10:39.762Z,100354.02
2019-03-11T09:13:07.303Z,100361.80
2019-03-11T09:15:34.638Z,100357.31
2019-03-11T09:18:01.768Z,100362.89
2019-03-11T09:20:29.624Z,100359.94
2019-03-11T09:22:57.080Z,100361.55
2019-03-11T09:25:25.261Z,100361.53
2019-03-11T09:27:53.182Z,100375.07
2019-03-11T09:30:20.342Z,100372.59
2019-03-11T09:32:47.485Z,100367.00
2019-03-11T09:35:14.885Z,100371.34
2019-03-11T09:37:42.930Z,100366.57
2019-03-11T09:40:11.277Z,100372.27
2019-03-11T09:42:38.527Z,100373.13
2019-03-11T09:45:06.195Z,100376.66
2019-03-11T09:47:33.283Z,100371.93
2019-03-11T09:50:01.035Z,100373.66
2019-03-11T09:52:28.182Z,100386.21
2019-03-11T09:54:55.260Z,100386.21
2019-03-11T09:57:22.342Z,100380.08
2019-03-11T09:59:49.642Z,100387.50
2019-03-11T10:02:17.195Z,100376.92
2019-03-11T10:04:44.256Z,100376.80
2019-03-11T10:07:11.506Z,100386.98
2019-03-11T10:09:39.431Z,100383.84
2019-03-11T10:12:06.536Z,100375.27
2019-03-11T10:14:33.723Z,100372.14
2019-03-11T10:17:00.864Z,100371.48
2019-03-11T10:19:27.982Z,100372.80
2019-03-11T10:21:55.104Z,100384.07
2019-03-11T10:24:22.256Z,100376.83
2019-03-11T10:26:49.349Z,100358.83
2019-03-11T10:29:17.010Z,100359.92
2019-03-11T10:31:44.096Z,100374.27
2019-03-11T10:34:11.287Z,100367.04
2019-03-11T10:36:39.372Z,100378.53
2019-03-11T10:39:06.476Z,100376.91
2019-03-11T10:41:33.616Z,100371.96
2019-03-11T10:44:00.828Z,100371.69
2019-03-11T10:46:27.888Z,100369.99
2019-03-11T10:48:55.308Z,100386.90
2019-03-11T10:51:22.943Z,100381.77
2019-03-11T10:53:50.847Z,100372.27
2019-03-11T10:56:18.704Z,100378.06
2019-03-11T10:58:46.335Z,100372.09
2019-03-11T11:01:26.251Z,100385.87
2019-03-11T11:03:53.240Z,100374.42
2019-03-11T11:06:20.051Z,100377.70
2019-03-11T11:08:46.774Z,100383.37
2019-03-11T11:11:13.820Z,100375.10
2019-03-11T11:13:40.728Z,100382.86
2019-03-11T11:16:07.495Z,100362.81
2019-03-11T11:18:34.568Z,100371.86
2019-03-11T11:21:01.398Z,100387.08
2019-03-11T11:23:28.122Z,100371.81
2019-03-11T11:25:54.912Z,100363.88
2019-03-11T11:28:22.074Z,100370.72
2019-03-11T11:30:48.815Z,100373.11
2019-03-11T11:33:15.607Z,100374.72
2019-03-11T11:35:49.618Z,100377.36
2019-03-11T11:38:16.988Z,100379.67
2019-03-11T11:40:44.068Z,100382.19
2019-03-11T11:43:10.822Z,100381.39
2019-03-11T11:45:37.787Z,100385.14
2019-03-11T11:48:04.686Z,100389.59
2019-03-11T11:50:31.526Z,100392.19
2019-03-11T11:52:58.255Z,100394.36
2019-03-11T11:55:25.113Z,100397.44
2019-03-11T11:57:52.273Z,100401.35
2019-03-11T12:00:21.223Z,100409.66
2019-03-11T12:02:48.240Z,100407.96
2019-03-11T12:05:15.079Z,100409.34
2019-03-11T12:07:41.806Z,100421.98
2019-03-11T12:10:10.736Z,100424.63
2019-03-11T12:12:37.811Z,100429.39
2019-03-11T12:15:04.706Z,100442.88
2019-03-11T12:17:31.479Z,100428.98
2019-03-11T12:19:58.451Z,100430.29
2019-03-11T12:22:25.170Z,100428.97
2019-03-11T12:24:51.845Z,100431.13
2019-03-11T12:27:18.466Z,100431.99
2019-03-11T12:29:45.079Z,100430.28
2019-03-11T12:32:11.818Z,100430.27
2019-03-11T12:34:38.562Z,100434.58
2019-03-11T12:37:05.304Z,100430.66
2019-03-11T12:39:32.195Z,100428.90
2019-03-11T12:41:59.274Z,100429.73
2019-03-11T12:44:25.886Z,100424.52
2019-03-11T12:46:52.832Z,100423.19
2019-03-11T12:49:19.560Z,100417.08
2019-03-11T12:51:50.151Z,100424.85
2019-03-11T12:54:15.988Z,100423.90
2019-03-11T12:56:43.081Z,100416.36
2019-03-11T12:59:10.520Z,100424.63
2019-03-11T13:01:37.863Z,100428.19
2019-03-11T13:04:17.146Z,100430.84
2019-03-11T13:06:44.339Z,100419.02
2019-03-11T13:09:11.449Z,100418.52
2019-03-11T13:11:38.522Z,100419.21
2019-03-11T13:14:05.679Z,100419.63
2019-03-11T13:16:52.309Z,100426.24
2019-03-11T13:19:19.099Z,100428.52
2019-03-11T13:21:46.390Z,100432.15
2019-03-11T13:24:13.404Z,100443.48
2019-03-11T13:26:41.514Z,100439.61
2019-03-11T13:29:08.231Z,100436.54
2019-03-11T13:31:34.852Z,100439.54
2019-03-11T13:34:21.183Z,100442.95
2019-03-11T13:36:48.366Z,100442.91
2019-03-11T13:39:15.087Z,100455.89
2019-03-11T13:41:41.761Z,100448.41
2019-03-11T13:44:08.481Z,100452.67
2019-03-11T13:46:35.194Z,100454.91
2019-03-11T13:49:02.355Z,100460.51
2019-03-11T13:51:29.167Z,100475.72
2019-03-11T13:53:56.236Z,100464.00
2019-03-11T13:56:23.041Z,100477.89
2019-03-11T13:59:09.569Z,100473.99
2019-03-11T14:01:36.340Z,100471.87
2019-03-11T14:04:03.049Z,100477.08
2019-03-11T14:06:43.034Z,100481.31
2019-03-11T14:09:09.759Z,100476.84
2019-03-11T14:11:36.565Z,100483.19
2019-03-11T14:14:28.822Z,100474.03
2019-03-11T14:16:43.683Z,100469.98
2019-03-11T14:19:10.767Z,100491.28
2019-03-11T14:21:38.112Z,100483.81
2019-03-11T14:24:05.573Z,100480.39
2019-03-11T14:26:32.671Z,100492.88
2019-03-11T14:28:59.787Z,100493.89
2019-03-11T14:31:27.269Z,100492.16
2019-03-11T14:33:54.345Z,100506.16
2019-03-11T14:36:22.023Z,100498.75
2019-03-11T14:38:49.097Z,100503.53
2019-03-11T14:41:16.168Z,100507.98
2019-03-11T14:43:43.828Z,100509.82
2019-03-11T14:46:10.911Z,100510.38
2019-03-11T14:48:37.971Z,100517.41
2019-03-11T14:51:05.139Z,100502.61
2019-03-11T14:53:32.218Z,100506.52
2019-03-11T14:55:59.297Z,100516.97
2019-03-11T14:58:29.612Z,100514.68
2019-03-11T15:00:55.783Z,100515.86
2019-03-11T15:03:22.873Z,100515.84
2019-03-11T15:05:50.000Z,100517.11
2019-03-11T15:08:17.151Z,100525.73
2019-03-11T15:10:44.211Z,100529.16
2019-03-11T15:13:11.402Z,100529.09
2019-03-11T15:15:38.470Z,100537.72
2019-03-11T15:18:05.552Z,100533.33
2019-03-11T15:20:32.690Z,100530.22
2019-03-11T15:23:07.589Z,100533.85
2019-03-11T15:25:28.981Z,100539.10
2019-03-11T15:27:56.097Z,100555.98
2019-03-11T15:30:23.334Z,100543.02
2019-03-11T15:32:50.422Z,100547.80
2019-03-11T15:35:17.925Z,100555.62
2019-03-11T15:37:45.512Z,100552.08
2019-03-11T15:40:12.780Z,100560.78
2019-03-11T15:42:39.993Z,100563.33
2019-03-11T15:45:08.819Z,100566.00
2019-03-11T15:47:35.924Z,100563.38
2019-03-11T15:50:03.507Z,100570.41
2019-03-11T15:52:30.768Z,100569.99
2019-03-11T15:54:57.846Z,100566.02
2019-03-11T15:57:24.998Z,100577.52
2019-03-11T15:59:52.106Z,100571.97
2019-03-11T16:02:19.183Z,100582.03
2019-03-11T16:04:46.512Z,100583.40
2019-03-11T16:07:13.618Z,100578.23
2019-03-11T16:09:41.187Z,100581.72
2019-03-11T16:12:08.350Z,100583.02
2019-03-11T16:14:35.796Z,100593.92
2019-03-11T16:17:03.003Z,100597.80
2019-03-11T16:19:30.492Z,100591.33
2019-03-11T16:21:57.580Z,100598.77
2019-03-11T16:24:25.037Z,100602.67
2019-03-11T16:26:52.287Z,100604.41
2019-03-11T16:29:19.371Z,100619.23
2019-03-11T16:31:46.636Z,100620.50
2019-03-11T16:34:13.758Z,100625.31
2019-03-11T16:36:40.838Z,100628.33
2019-03-11T16:39:07.985Z,100627.45
2019-03-11T16:41:35.135Z,100630.09
2019-03-11T16:44:02.393Z,100635.75
2019-03-11T16:46:29.479Z,100644.01
2019-03-11T16:48:56.626Z,100644.44
2019-03-11T16:51:23.892Z,100650.96
2019-03-11T16:53:51.205Z,100648.39
2019-03-11T16:56:18.451Z,100657.08
2019-03-11T16:58:45.848Z,100657.10
2019-03-11T17:01:53.752Z,100659.69
2019-03-11T17:04:20.697Z,100662.29
2019-03-11T17:06:47.437Z,100669.70
2019-03-11T17:09:14.233Z,100670.56
2019-03-11T17:11:54.148Z,100678.83
2019-03-11T17:14:20.829Z,100684.92
2019-03-11T17:16:47.547Z,100689.25
2019-03-11T17:19:14.261Z,100695.77
2019-03-11T17:21:41.108Z,100694.47
2019-03-11T17:24:07.834Z,100693.61
2019-03-11T17:26:34.511Z,100700.12
2019-03-11T17:29:01.393Z,100701.87
2019-03-11T17:31:28.114Z,100700.55
2019-03-11T17:33:54.730Z,100706.66
2019-03-11T17:36:21.617Z,100710.99
2019-03-11T17:38:48.231Z,100704.95
2019-03-11T17:41:15.404Z,100704.06
2019-03-11T17:43:42.260Z,100712.33
2019-03-11T17:46:09.019Z,100711.89
2019-03-11T17:48:36.136Z,100719.28
2019-03-11T17:51:02.954Z,100731.00
2019-03-11T17:53:29.734Z,100730.98
2019-03-11T17:55:56.438Z,100740.11
2019-03-11T17:58:23.577Z,100750.11
2019-03-11T18:03:39.422Z,100753.57
2019-03-11T18:06:11.680Z,100752.72
2019-03-11T18:08:35.638Z,100756.17
2019-03-11T18:11:02.412Z,100762.71
2019-03-11T18:13:41.605Z,100766.59
2019-03-11T18:16:08.398Z,100765.75
2019-03-11T18:18:35.011Z,100777.92
2019-03-11T18:21:02.080Z,100777.03
2019-03-11T18:23:28.901Z,100781.81
2019-03-11T18:25:56.033Z,100780.09
2019-03-11T18:28:22.640Z,100789.20
2019-03-11T18:30:51.670Z,100796.61
2019-03-11T18:33:18.507Z,100802.23
2019-03-11T18:35:45.524Z,100801.80
2019-03-11T18:38:12.389Z,100805.73
2019-03-11T18:40:39.024Z,100814.41
2019-03-11T18:43:05.717Z,100822.24
2019-03-11T18:45:32.511Z,100826.16
2019-03-11T18:47:59.590Z,100834.41
2019-03-11T18:50:26.309Z,100833.53
2019-03-11T18:52:53.215Z,100829.62
2019-03-11T18:55:19.945Z,100837.88
2019-03-11T18:57:46.672Z,100838.72
2019-03-11T19:00:14.981Z,100847.41
2019-03-11T19:02:41.764Z,100850.42
2019-03-11T19:05:09.445Z,100856.52
2019-03-11T19:07:56.025Z,100859.11
2019-03-11T19:10:22.699Z,100859.11
2019-03-11T19:12:49.307Z,100866.89
2019-03-11T19:15:29.200Z,100868.65
2019-03-11T19:17:56.326Z,100871.20
2019-03-11T19:20:23.944Z,100888.98
2019-03-11T19:22:51.126Z,100887.27
2019-03-11T19:25:18.210Z,100906.74
2019-03-11T19:28:26.071Z,100898.46
2019-03-11T19:30:52.802Z,100901.94
2019-03-11T19:33:19.508Z,100901.48
2019-03-11T19:35:46.311Z,100904.02
2019-03-11T19:38:12.911Z,100903.56
2019-03-11T19:40:39.736Z,100913.03
2019-03-11T19:43:06.563Z,100915.22
2019-03-11T19:45:33.269Z,100924.73
2019-03-11T19:48:00.027Z,100929.05
2019-03-11T19:50:26.778Z,100930.30
2019-03-11T19:52:59.136Z,100936.45
2019-03-11T19:55:22.178Z,100941.22
2019-03-11T19:57:48.937Z,100943.77
2019-03-11T20:00:16.703Z,100951.22
2019-03-11T20:02:43.665Z,100958.51
2019-03-11T20:05:11.041Z,100958.37
2019-03-11T20:07:37.774Z,100967.12
2019-03-11T20:13:00.449Z,100976.94
2019-03-11T20:15:27.593Z,100979.91
2019-03-11T20:17:54.745Z,100978.64
2019-03-11T20:20:23.157Z,100970.76
2019-03-11T20:23:14.791Z,100975.90
2019-03-11T20:25:43.729Z,100973.59
2019-03-11T20:28:10.934Z,100978.83
2019-03-11T20:30:38.037Z,100977.03
2019-03-11T20:33:05.561Z,100983.93
2019-03-11T20:35:33.062Z,100986.55
2019-03-11T20:38:00.168Z,100998.95
2019-03-11T20:40:27.787Z,101004.65
2019-03-11T20:42:55.011Z,101013.48
2019-03-11T20:45:22.206Z,101019.48
2019-03-11T20:47:50.177Z,101016.95
2019-03-11T20:50:17.499Z,101020.78
2019-03-11T20:52:44.637Z,101016.48
2019-03-11T20:55:52.775Z,101019.51
2019-03-11T20:58:19.398Z,101031.33
2019-03-11T21:00:46.176Z,101030.37
2019-03-11T21:03:13.083Z,101042.53
2019-03-11T21:05:39.866Z,101055.53
2019-03-11T21:08:06.902Z,101057.78
2019-03-11T21:10:33.845Z,101060.06
2019-03-11T21:13:00.718Z,101070.79
2019-03-11T21:15:27.571Z,101066.04
2019-03-11T21:17:54.298Z,101071.23
2019-03-11T21:20:20.935Z,101069.35
2019-03-11T21:22:47.700Z,101073.16
2019-03-11T21:25:15.271Z,101080.91
2019-03-11T21:27:42.094Z,101092.64
2019-03-11T21:30:11.710Z,101091.72
2019-03-11T21:32:38.872Z,101099.05
2019-03-11T21:35:06.167Z,101100.99
2019-03-11T21:37:33.194Z,101104.90
2019-03-11T21:40:00.171Z,101102.64
2019-03-11T21:42:28.655Z,101113.91
2019-03-11T21:44:55.337Z,101115.59
2019-03-11T21:47:22.561Z,101113.91
2019-03-11T21:49:49.315Z,101115.77
2019-03-11T21:52:16.048Z,101115.88
2019-03-11T21:54:42.965Z,101121.16
2019-03-11T21:57:09.817Z,101112.04
2019-03-11T21:59:36.669Z,101113.79
2019-03-11T22:02:03.812Z,101111.68
2019-03-11T22:04:30.431Z,101120.05
2019-03-11T22:06:57.218Z,101129.19
2019-03-11T22:09:23.916Z,101144.38
2019-03-11T22:11:50.534Z,101152.19
2019-03-11T22:14:17.256Z,101160.38
2019-03-11T22:16:44.022Z,101170.06
2019-03-11T22:19:11.453Z,101176.89
2019-03-11T22:21:51.404Z,101174.27
2019-03-11T22:24:18.481Z,101181.99
2019-03-11T22:27:05.089Z,101182.87
2019-03-11T22:29:32.260Z,101188.89
2019-03-11T22:31:59.315Z,101193.80
2019-03-11T22:34:26.454Z,101202.80
2019-03-11T22:36:55.867Z,101206.84
2019-03-11T22:39:22.523Z,101206.47
2019-03-11T22:41:52.619Z,101212.13
2019-03-11T22:44:19.485Z,101219.49
2019-03-11T22:46:46.555Z,101219.84
2019-03-11T22:49:13.887Z,101220.25
2019-03-11T22:51:40.958Z,101225.94
2019-03-11T22:54:08.042Z,101225.08
2019-03-11T22:56:35.650Z,101234.08
2019-03-11T22:59:02.747Z,101244.50
2019-03-11T23:01:29.803Z,101254.00
2019-03-11T23:03:57.487Z,101261.85
2019-03-11T23:06:24.582Z,101263.41
2019-03-11T23:08:52.016Z,101269.20
2019-03-11T23:11:19.534Z,101273.52
2019-03-11T23:13:46.618Z,101277.37
2019-03-11T23:16:13.882Z,101280.79
2019-03-11T23:18:41.198Z,101283.33
2019-03-11T23:21:08.497Z,101283.88
2019-03-11T23:23:35.639Z,101292.41
2019-03-11T23:26:02.774Z,101291.55
2019-03-11T23:28:29.852Z,101301.45
2019-03-11T23:30:57.210Z,101310.55
2019-03-11T23:33:24.293Z,101312.60
2019-03-11T23:35:51.364Z,101312.57
2019-03-11T23:38:18.441Z,101318.13
2019-03-11T23:40:45.594Z,101323.62
2019-03-11T23:43:12.679Z,101327.10
2019-03-11T23:45:39.735Z,101328.41
2019-03-11T23:48:06.927Z,101332.59
2019-03-11T23:50:34.017Z,101334.28
2019-03-11T23:53:01.493Z,101338.12
2019-03-11T23:55:28.675Z,101337.77
2019-03-11T23:57:55.767Z,101330.91
